Ferry Fukuoka2 — JI3703 — position and weather

sailwx.info

Track history (hours):
 
Tides and Currents Weather Stations Pressure Air Temp Water Temp Dewpoint Dewpoint Depression Visibility Wind Speed Wind Dir Waves Ship Positions

Ferry Fukuoka2

Last reported at 2018-Jun-18 22:23 UTC. Time now 2018-Jun-18 22:36 UTC.
Position N 34°37' E 135°26'.

Length 167 m; draft 5.7 m.

Type: Passenger vessel. MMSI: 431301648.

Date/timePositionNaut miles runAvg speedWind from/ knotsBaromVisibWave heightAir tempDewpointWater temp
2018-Jun-18 22:23N 34°37' E 135°26'0 0.0
2018-Jun-18 21:59N 34°37' E 135°26'0 0.0
2018-Jun-18 21:28N 34°37' E 135°26'0 0.0
2018-Jun-18 20:59N 34°37' E 135°26'0 0.0
2018-Jun-18 20:30N 34°37' E 135°26'3 6.8
2018-Jun-18 20:00N 34°37' E 135°22'1020.2
2018-Jun-18 19:30N 34°35' E 135°10'1021.1
2018-Jun-18 19:00N 34°36' E 134°57'1020.8
2018-Jun-18 18:30N 34°32' E 134°46'1121.4
2018-Jun-18 18:00N 34°27' E 134°34'1121.7
2018-Jun-18 17:31N 34°23' E 134°22'1121.0
2018-Jun-18 17:00N 34°25' E 134°09'4 0.1
2018-Jun-17 11:08N 34°24' E 134°14'323.0
2018-Jun-17 11:01N 34°25' E 134°18'1122.1
2018-Jun-17 10:31N 34°28' E 134°31'1121.7
2018-Jun-17 10:01N 34°32' E 134°43'1121.2
2018-Jun-17 09:29N 34°36' E 134°55'918.7
2018-Jun-17 09:01N 34°36' E 135°06'1020.5
2018-Jun-17 08:30N 34°37' E 135°19'6 8.7
2018-Jun-17 07:49N 34°37' E 135°26'0 0.0
2018-Jun-17 07:25N 34°37' E 135°26'0 0.0
2018-Jun-17 06:49N 34°37' E 135°26'0 0.0
2018-Jun-17 06:25N 34°37' E 135°26'0 0.0
2018-Jun-17 05:58N 34°37' E 135°26'0 0.0
2018-Jun-17 05:25N 34°37' E 135°26'0 0.0
2018-Jun-17 04:55N 34°37' E 135°26'0 0.0
2018-Jun-17 04:25N 34°37' E 135°26'0 0.0
2018-Jun-17 03:55N 34°37' E 135°26'0 0.0
2018-Jun-17 03:19N 34°37' E 135°26'0 0.0
2018-Jun-17 02:49N 34°37' E 135°26'0 0.0
2018-Jun-17 02:25N 34°37' E 135°26'0 0.0
2018-Jun-17 01:55N 34°37' E 135°26'0 0.0
2018-Jun-17 01:25N 34°37' E 135°26'0 0.0
2018-Jun-17 00:55N 34°37' E 135°26'0 0.0
2018-Jun-17 00:25N 34°37' E 135°26'0 0.0
2018-Jun-16 23:43N 34°37' E 135°26'0 0.0
2018-Jun-16 23:13N 34°37' E 135°26'0 0.0
2018-Jun-16 22:49N 34°37' E 135°26'0 0.0
2018-Jun-16 22:19N 34°37' E 135°26'0 0.0
2018-Jun-16 21:55N 34°37' E 135°26'0 0.0
2018-Jun-16 21:13N 34°37' E 135°26'0 0.0
2018-Jun-16 20:55N 34°37' E 135°26'0 0.0
2018-Jun-16 20:29N 34°37' E 135°26'3 5.5
2018-Jun-16 20:00N 34°38' E 135°23'917.2
2018-Jun-16 19:30N 34°35' E 135°13'1019.4
2018-Jun-16 19:01N 34°37' E 135°01'1020.6
2018-Jun-16 18:30N 34°33' E 134°49'1020.4
2018-Jun-16 18:00N 34°29' E 134°38'1020.3
2018-Jun-16 17:30N 34°25' E 134°27'1020.1
2018-Jun-16 17:00N 34°24' E 134°14'11 0.4
2018-Jun-15 11:43N 34°26' E 134°01'1021.4
2018-Jun-15 11:15N 34°25' E 134°13'622.6
2018-Jun-15 11:01N 34°25' E 134°19'1122.4
2018-Jun-15 10:30N 34°28' E 134°33'1122.6
2018-Jun-15 10:00N 34°33' E 134°45'1223.4
2018-Jun-15 09:29N 34°38' E 134°59'1020.9
2018-Jun-15 09:00N 34°36' E 135°11'1019.6
2018-Jun-15 08:30N 34°38' E 135°22'3 4.3
2018-Jun-15 07:51N 34°37' E 135°26'0 0.0
2018-Jun-15 07:27N 34°37' E 135°26'0 0.0
2018-Jun-15 06:57N 34°37' E 135°26'0 0.0
2018-Jun-15 06:21N 34°37' E 135°26'0 0.0
2018-Jun-15 05:57N 34°37' E 135°26'0 0.0
2018-Jun-15 05:27N 34°37' E 135°26'0 0.0
2018-Jun-15 04:57N 34°37' E 135°26'0 0.0
2018-Jun-15 04:27N 34°37' E 135°26'0 0.0
2018-Jun-15 03:57N 34°37' E 135°26'0 0.0
2018-Jun-15 03:21N 34°37' E 135°26'0 0.0
2018-Jun-15 02:57N 34°37' E 135°26'0 0.0
2018-Jun-15 02:27N 34°37' E 135°26'0 0.0
2018-Jun-15 01:57N 34°37' E 135°26'0 0.0
2018-Jun-15 01:27N 34°37' E 135°26'0 0.0
2018-Jun-15 00:51N 34°37' E 135°26'0 0.0
2018-Jun-15 00:15N 34°37' E 135°26'0 0.0
2018-Jun-14 23:57N 34°37' E 135°26'0 0.0
2018-Jun-14 23:27N 34°37' E 135°26'0 0.0
2018-Jun-14 22:57N 34°37' E 135°26'0 0.0
2018-Jun-14 22:27N 34°37' E 135°26'0 0.0
2018-Jun-14 21:57N 34°37' E 135°26'0 0.0
2018-Jun-14 21:27N 34°37' E 135°26'0 0.0
2018-Jun-14 20:57N 34°37' E 135°26'0 0.0
2018-Jun-14 20:28N 34°37' E 135°26'2 5.1
2018-Jun-14 20:00N 34°38' E 135°23'917.9
2018-Jun-14 19:30N 34°35' E 135°13'1020.7
2018-Jun-14 19:01N 34°37' E 135°01'1122.5
2018-Jun-14 18:31N 34°33' E 134°48'1121.1
2018-Jun-14 18:00N 34°28' E 134°36'1121.1
2018-Jun-14 17:30N 34°24' E 134°25'1121.3
2018-Jun-14 17:00N 34°25' E 134°12'2 0.1
2018-Jun-13 11:05N 34°24' E 134°13'222.6
2018-Jun-13 11:00N 34°24' E 134°16'1121.9
2018-Jun-13 10:30N 34°27' E 134°28'1122.5
2018-Jun-13 10:00N 34°31' E 134°41'1224.1
2018-Jun-13 09:30N 34°36' E 134°55'1122.1
2018-Jun-13 09:00N 34°36' E 135°08'1020.5
2018-Jun-13 08:31N 34°37' E 135°20'5 8.1
2018-Jun-13 07:57N 34°37' E 135°26'0 0.0
2018-Jun-13 07:27N 34°37' E 135°26'0 0.0
2018-Jun-13 06:57N 34°37' E 135°26'0 0.0
2018-Jun-13 06:27N 34°37' E 135°26'0 0.0
2018-Jun-13 05:57N 34°37' E 135°26'0 0.0
2018-Jun-13 05:27N 34°37' E 135°26'0 0.0
2018-Jun-13 04:51N 34°37' E 135°26'0 0.0
2018-Jun-13 04:27N 34°37' E 135°26'0 0.0
2018-Jun-13 03:57N 34°37' E 135°26'0 0.0
2018-Jun-13 03:21N 34°37' E 135°26'0 0.0
2018-Jun-13 02:45N 34°37' E 135°26'0 0.0
2018-Jun-13 02:21N 34°37' E 135°26'0 0.0
2018-Jun-13 01:57N 34°37' E 135°26'0 0.0
2018-Jun-13 01:21N 34°37' E 135°26'0 0.0
2018-Jun-13 00:57N 34°37' E 135°26'0 0.0
2018-Jun-13 00:27N 34°37' E 135°26'0 0.0
2018-Jun-12 23:51N 34°37' E 135°26'0 0.0
2018-Jun-12 23:27N 34°37' E 135°26'0 0.0
2018-Jun-12 22:51N 34°37' E 135°26'0 0.0
2018-Jun-12 22:15N 34°37' E 135°26'0 0.0
2018-Jun-12 21:51N 34°37' E 135°26'0 0.0
2018-Jun-12 21:21N 34°37' E 135°26'0 0.0
2018-Jun-12 20:57N 34°37' E 135°26'0 0.0
2018-Jun-12 20:30N 34°37' E 135°26'2 4.8
2018-Jun-12 20:00N 34°38' E 135°23'918.7
2018-Jun-12 19:30N 34°35' E 135°12'1019.9
2018-Jun-12 19:00N 34°37' E 135°01'1121.0
2018-Jun-12 18:30N 34°33' E 134°49'1121.3
2018-Jun-12 18:00N 34°29' E 134°37'1020.3
2018-Jun-12 17:31N 34°25' E 134°26'10 0.3
2018-Jun-11 11:03N 34°24' E 134°13'120.4
2018-Jun-11 11:00N 34°24' E 134°14'1121.9
2018-Jun-11 10:30N 34°26' E 134°27'1122.3
2018-Jun-11 10:00N 34°31' E 134°40'1223.9
2018-Jun-11 09:30N 34°35' E 134°53'1122.4
2018-Jun-11 09:01N 34°36' E 135°07'1020.9
2018-Jun-11 08:31N 34°37' E 135°19'510.2
2018-Jun-11 07:59N 34°37' E 135°26'0 0.0
2018-Jun-11 07:29N 34°37' E 135°26'0 0.0
2018-Jun-11 06:59N 34°37' E 135°26'0 0.0
2018-Jun-11 06:29N 34°37' E 135°26'0 0.0
2018-Jun-11 05:59N 34°37' E 135°26'0 0.0
2018-Jun-11 05:29N 34°37' E 135°26'0 0.0
2018-Jun-11 04:35N 34°37' E 135°26'0 0.0
2018-Jun-11 04:23N 34°37' E 135°26'0 0.0
2018-Jun-11 03:59N 34°37' E 135°26'0 0.0
2018-Jun-11 03:05N 34°37' E 135°26'0 0.0
2018-Jun-11 02:53N 34°37' E 135°26'0 0.0
2018-Jun-11 02:29N 34°37' E 135°26'0 0.0
2018-Jun-11 01:59N 34°37' E 135°26'0 0.0
2018-Jun-11 01:29N 34°37' E 135°26'0 0.0
2018-Jun-11 00:53N 34°37' E 135°26'0 0.0
2018-Jun-11 00:29N 34°37' E 135°26'0 0.0
2018-Jun-10 23:59N 34°37' E 135°26'0 0.0
2018-Jun-10 23:29N 34°37' E 135°26'0 0.0
2018-Jun-10 22:53N 34°37' E 135°26'0 0.0
2018-Jun-10 22:23N 34°37' E 135°26'0 0.0
2018-Jun-10 21:59N 34°37' E 135°26'0 0.0
2018-Jun-10 21:29N 34°37' E 135°26'0 0.0
2018-Jun-10 21:00N 34°37' E 135°26'0 0.0
2018-Jun-10 20:30N 34°37' E 135°26'1 2.4
2018-Jun-10 20:00N 34°37' E 135°24'816.1
2018-Jun-10 19:31N 34°34' E 135°16'1020.3
2018-Jun-10 19:00N 34°35' E 135°03'1019.2
2018-Jun-10 18:30N 34°34' E 134°52'1121.9
2018-Jun-10 18:01N 34°29' E 134°40'1122.0
2018-Jun-10 17:30N 34°26' E 134°27'1121.9
2018-Jun-10 17:00N 34°24' E 134°14'1 0.0
2018-Jun-09 11:03N 34°25' E 134°14'122.5
2018-Jun-09 11:00N 34°24' E 134°15'1121.8
2018-Jun-09 10:30N 34°27' E 134°27'1122.4
2018-Jun-09 10:00N 34°31' E 134°40'1223.4
2018-Jun-09 09:31N 34°35' E 134°53'1121.4
2018-Jun-09 09:00N 34°36' E 135°06'1020.9
2018-Jun-09 08:30N 34°37' E 135°19'610.9
2018-Jun-09 08:00N 34°37' E 135°26'0 0.0
2018-Jun-09 07:30N 34°37' E 135°26'0 0.0
2018-Jun-09 07:00N 34°37' E 135°26'0 0.0
2018-Jun-09 06:30N 34°37' E 135°26'0 0.0
2018-Jun-09 06:00N 34°37' E 135°26'0 0.0
2018-Jun-09 05:30N 34°37' E 135°26'0 0.0
2018-Jun-09 05:00N 34°37' E 135°26'0 0.0
2018-Jun-09 04:30N 34°37' E 135°26'0 0.0
2018-Jun-09 04:00N 34°37' E 135°26'0 0.0
2018-Jun-09 03:30N 34°37' E 135°26'0 0.0
2018-Jun-09 03:00N 34°37' E 135°26'0 0.0
2018-Jun-09 02:30N 34°37' E 135°26'0 0.0
2018-Jun-09 02:00N 34°37' E 135°26'0 0.0
2018-Jun-09 01:30N 34°37' E 135°26'0 0.0
2018-Jun-09 00:54N 34°37' E 135°26'0 0.0
2018-Jun-09 00:30N 34°37' E 135°26'0 0.0
2018-Jun-09 00:00N 34°37' E 135°26'0 0.0
2018-Jun-08 23:30N 34°37' E 135°26'0 0.0
2018-Jun-08 23:00N 34°37' E 135°26'0 0.0
2018-Jun-08 22:30N 34°37' E 135°26'  
Track history (hours):
 
Tides and Currents Weather Stations Pressure Air Temp Water Temp Dewpoint Dewpoint Depression Visibility Wind Speed Wind Dir Waves Ship Positions

Ferry Fukuoka2

Last reported at 2018-Jun-18 22:23 UTC. Time now 2018-Jun-18 22:36 UTC.
Position N 34°37' E 135°26'.

Length 167 m; draft 5.7 m.

Type: Passenger vessel. MMSI: 431301648.

Date/timePositionNaut miles runAvg speedWind from/ knotsBaromVisibWave heightAir tempDewpointWater temp
2018-Jun-18 22:23N 34°37' E 135°26'0 0.0
2018-Jun-18 21:59N 34°37' E 135°26'0 0.0
2018-Jun-18 21:28N 34°37' E 135°26'0 0.0
2018-Jun-18 20:59N 34°37' E 135°26'0 0.0
2018-Jun-18 20:30N 34°37' E 135°26'3 6.8
2018-Jun-18 20:00N 34°37' E 135°22'1020.2
2018-Jun-18 19:30N 34°35' E 135°10'1021.1
2018-Jun-18 19:00N 34°36' E 134°57'1020.8
2018-Jun-18 18:30N 34°32' E 134°46'1121.4
2018-Jun-18 18:00N 34°27' E 134°34'1121.7
2018-Jun-18 17:31N 34°23' E 134°22'1121.0
2018-Jun-18 17:00N 34°25' E 134°09'4 0.1
2018-Jun-17 11:08N 34°24' E 134°14'323.0
2018-Jun-17 11:01N 34°25' E 134°18'1122.1
2018-Jun-17 10:31N 34°28' E 134°31'1121.7
2018-Jun-17 10:01N 34°32' E 134°43'1121.2
2018-Jun-17 09:29N 34°36' E 134°55'918.7
2018-Jun-17 09:01N 34°36' E 135°06'1020.5
2018-Jun-17 08:30N 34°37' E 135°19'6 8.7
2018-Jun-17 07:49N 34°37' E 135°26'0 0.0
2018-Jun-17 07:25N 34°37' E 135°26'0 0.0
2018-Jun-17 06:49N 34°37' E 135°26'0 0.0
2018-Jun-17 06:25N 34°37' E 135°26'0 0.0
2018-Jun-17 05:58N 34°37' E 135°26'0 0.0
2018-Jun-17 05:25N 34°37' E 135°26'0 0.0
2018-Jun-17 04:55N 34°37' E 135°26'0 0.0
2018-Jun-17 04:25N 34°37' E 135°26'0 0.0
2018-Jun-17 03:55N 34°37' E 135°26'0 0.0
2018-Jun-17 03:19N 34°37' E 135°26'0 0.0
2018-Jun-17 02:49N 34°37' E 135°26'0 0.0
2018-Jun-17 02:25N 34°37' E 135°26'0 0.0
2018-Jun-17 01:55N 34°37' E 135°26'0 0.0
2018-Jun-17 01:25N 34°37' E 135°26'0 0.0
2018-Jun-17 00:55N 34°37' E 135°26'0 0.0
2018-Jun-17 00:25N 34°37' E 135°26'0 0.0
2018-Jun-16 23:43N 34°37' E 135°26'0 0.0
2018-Jun-16 23:13N 34°37' E 135°26'0 0.0
2018-Jun-16 22:49N 34°37' E 135°26'0 0.0
2018-Jun-16 22:19N 34°37' E 135°26'0 0.0
2018-Jun-16 21:55N 34°37' E 135°26'0 0.0
2018-Jun-16 21:13N 34°37' E 135°26'0 0.0
2018-Jun-16 20:55N 34°37' E 135°26'0 0.0
2018-Jun-16 20:29N 34°37' E 135°26'3 5.5
2018-Jun-16 20:00N 34°38' E 135°23'917.2
2018-Jun-16 19:30N 34°35' E 135°13'1019.4
2018-Jun-16 19:01N 34°37' E 135°01'1020.6
2018-Jun-16 18:30N 34°33' E 134°49'1020.4
2018-Jun-16 18:00N 34°29' E 134°38'1020.3
2018-Jun-16 17:30N 34°25' E 134°27'1020.1
2018-Jun-16 17:00N 34°24' E 134°14'11 0.4
2018-Jun-15 11:43N 34°26' E 134°01'1021.4
2018-Jun-15 11:15N 34°25' E 134°13'622.6
2018-Jun-15 11:01N 34°25' E 134°19'1122.4
2018-Jun-15 10:30N 34°28' E 134°33'1122.6
2018-Jun-15 10:00N 34°33' E 134°45'1223.4
2018-Jun-15 09:29N 34°38' E 134°59'1020.9
2018-Jun-15 09:00N 34°36' E 135°11'1019.6
2018-Jun-15 08:30N 34°38' E 135°22'3 4.3
2018-Jun-15 07:51N 34°37' E 135°26'0 0.0
2018-Jun-15 07:27N 34°37' E 135°26'0 0.0
2018-Jun-15 06:57N 34°37' E 135°26'0 0.0
2018-Jun-15 06:21N 34°37' E 135°26'0 0.0
2018-Jun-15 05:57N 34°37' E 135°26'0 0.0
2018-Jun-15 05:27N 34°37' E 135°26'0 0.0
2018-Jun-15 04:57N 34°37' E 135°26'0 0.0
2018-Jun-15 04:27N 34°37' E 135°26'0 0.0
2018-Jun-15 03:57N 34°37' E 135°26'0 0.0
2018-Jun-15 03:21N 34°37' E 135°26'0 0.0
2018-Jun-15 02:57N 34°37' E 135°26'0 0.0
2018-Jun-15 02:27N 34°37' E 135°26'0 0.0
2018-Jun-15 01:57N 34°37' E 135°26'0 0.0
2018-Jun-15 01:27N 34°37' E 135°26'0 0.0
2018-Jun-15 00:51N 34°37' E 135°26'0 0.0
2018-Jun-15 00:15N 34°37' E 135°26'0 0.0
2018-Jun-14 23:57N 34°37' E 135°26'0 0.0
2018-Jun-14 23:27N 34°37' E 135°26'0 0.0
2018-Jun-14 22:57N 34°37' E 135°26'0 0.0
2018-Jun-14 22:27N 34°37' E 135°26'0 0.0
2018-Jun-14 21:57N 34°37' E 135°26'0 0.0
2018-Jun-14 21:27N 34°37' E 135°26'0 0.0
2018-Jun-14 20:57N 34°37' E 135°26'0 0.0
2018-Jun-14 20:28N 34°37' E 135°26'2 5.1
2018-Jun-14 20:00N 34°38' E 135°23'917.9
2018-Jun-14 19:30N 34°35' E 135°13'1020.7
2018-Jun-14 19:01N 34°37' E 135°01'1122.5
2018-Jun-14 18:31N 34°33' E 134°48'1121.1
2018-Jun-14 18:00N 34°28' E 134°36'1121.1
2018-Jun-14 17:30N 34°24' E 134°25'1121.3
2018-Jun-14 17:00N 34°25' E 134°12'2 0.1
2018-Jun-13 11:05N 34°24' E 134°13'222.6
2018-Jun-13 11:00N 34°24' E 134°16'1121.9
2018-Jun-13 10:30N 34°27' E 134°28'1122.5
2018-Jun-13 10:00N 34°31' E 134°41'1224.1
2018-Jun-13 09:30N 34°36' E 134°55'1122.1
2018-Jun-13 09:00N 34°36' E 135°08'1020.5
2018-Jun-13 08:31N 34°37' E 135°20'5 8.1
2018-Jun-13 07:57N 34°37' E 135°26'0 0.0
2018-Jun-13 07:27N 34°37' E 135°26'0 0.0
2018-Jun-13 06:57N 34°37' E 135°26'0 0.0
2018-Jun-13 06:27N 34°37' E 135°26'0 0.0
2018-Jun-13 05:57N 34°37' E 135°26'0 0.0
2018-Jun-13 05:27N 34°37' E 135°26'0 0.0
2018-Jun-13 04:51N 34°37' E 135°26'0 0.0
2018-Jun-13 04:27N 34°37' E 135°26'0 0.0
2018-Jun-13 03:57N 34°37' E 135°26'0 0.0
2018-Jun-13 03:21N 34°37' E 135°26'0 0.0
2018-Jun-13 02:45N 34°37' E 135°26'0 0.0
2018-Jun-13 02:21N 34°37' E 135°26'0 0.0
2018-Jun-13 01:57N 34°37' E 135°26'0 0.0
2018-Jun-13 01:21N 34°37' E 135°26'0 0.0
2018-Jun-13 00:57N 34°37' E 135°26'0 0.0
2018-Jun-13 00:27N 34°37' E 135°26'0 0.0
2018-Jun-12 23:51N 34°37' E 135°26'0 0.0
2018-Jun-12 23:27N 34°37' E 135°26'0 0.0
2018-Jun-12 22:51N 34°37' E 135°26'0 0.0
2018-Jun-12 22:15N 34°37' E 135°26'0 0.0
2018-Jun-12 21:51N 34°37' E 135°26'0 0.0
2018-Jun-12 21:21N 34°37' E 135°26'0 0.0
2018-Jun-12 20:57N 34°37' E 135°26'0 0.0
2018-Jun-12 20:30N 34°37' E 135°26'2 4.8
2018-Jun-12 20:00N 34°38' E 135°23'918.7
2018-Jun-12 19:30N 34°35' E 135°12'1019.9
2018-Jun-12 19:00N 34°37' E 135°01'1121.0
2018-Jun-12 18:30N 34°33' E 134°49'1121.3
2018-Jun-12 18:00N 34°29' E 134°37'1020.3
2018-Jun-12 17:31N 34°25' E 134°26'10 0.3
2018-Jun-11 11:03N 34°24' E 134°13'120.4
2018-Jun-11 11:00N 34°24' E 134°14'1121.9
2018-Jun-11 10:30N 34°26' E 134°27'1122.3
2018-Jun-11 10:00N 34°31' E 134°40'1223.9
2018-Jun-11 09:30N 34°35' E 134°53'1122.4
2018-Jun-11 09:01N 34°36' E 135°07'1020.9
2018-Jun-11 08:31N 34°37' E 135°19'510.2
2018-Jun-11 07:59N 34°37' E 135°26'0 0.0
2018-Jun-11 07:29N 34°37' E 135°26'0 0.0
2018-Jun-11 06:59N 34°37' E 135°26'0 0.0
2018-Jun-11 06:29N 34°37' E 135°26'0 0.0
2018-Jun-11 05:59N 34°37' E 135°26'0 0.0
2018-Jun-11 05:29N 34°37' E 135°26'0 0.0
2018-Jun-11 04:35N 34°37' E 135°26'0 0.0
2018-Jun-11 04:23N 34°37' E 135°26'0 0.0
2018-Jun-11 03:59N 34°37' E 135°26'0 0.0
2018-Jun-11 03:05N 34°37' E 135°26'0 0.0
2018-Jun-11 02:53N 34°37' E 135°26'0 0.0
2018-Jun-11 02:29N 34°37' E 135°26'0 0.0
2018-Jun-11 01:59N 34°37' E 135°26'0 0.0
2018-Jun-11 01:29N 34°37' E 135°26'0 0.0
2018-Jun-11 00:53N 34°37' E 135°26'0 0.0
2018-Jun-11 00:29N 34°37' E 135°26'0 0.0
2018-Jun-10 23:59N 34°37' E 135°26'0 0.0
2018-Jun-10 23:29N 34°37' E 135°26'0 0.0
2018-Jun-10 22:53N 34°37' E 135°26'0 0.0
2018-Jun-10 22:23N 34°37' E 135°26'0 0.0
2018-Jun-10 21:59N 34°37' E 135°26'0 0.0
2018-Jun-10 21:29N 34°37' E 135°26'0 0.0
2018-Jun-10 21:00N 34°37' E 135°26'0 0.0
2018-Jun-10 20:30N 34°37' E 135°26'1 2.4
2018-Jun-10 20:00N 34°37' E 135°24'816.1
2018-Jun-10 19:31N 34°34' E 135°16'1020.3
2018-Jun-10 19:00N 34°35' E 135°03'1019.2
2018-Jun-10 18:30N 34°34' E 134°52'1121.9
2018-Jun-10 18:01N 34°29' E 134°40'1122.0
2018-Jun-10 17:30N 34°26' E 134°27'1121.9
2018-Jun-10 17:00N 34°24' E 134°14'1 0.0
2018-Jun-09 11:03N 34°25' E 134°14'122.5
2018-Jun-09 11:00N 34°24' E 134°15'1121.8
2018-Jun-09 10:30N 34°27' E 134°27'1122.4
2018-Jun-09 10:00N 34°31' E 134°40'1223.4
2018-Jun-09 09:31N 34°35' E 134°53'1121.4
2018-Jun-09 09:00N 34°36' E 135°06'1020.9
2018-Jun-09 08:30N 34°37' E 135°19'610.9
2018-Jun-09 08:00N 34°37' E 135°26'0 0.0
2018-Jun-09 07:30N 34°37' E 135°26'0 0.0
2018-Jun-09 07:00N 34°37' E 135°26'0 0.0
2018-Jun-09 06:30N 34°37' E 135°26'0 0.0
2018-Jun-09 06:00N 34°37' E 135°26'0 0.0
2018-Jun-09 05:30N 34°37' E 135°26'0 0.0
2018-Jun-09 05:00N 34°37' E 135°26'0 0.0
2018-Jun-09 04:30N 34°37' E 135°26'0 0.0
2018-Jun-09 04:00N 34°37' E 135°26'0 0.0
2018-Jun-09 03:30N 34°37' E 135°26'0 0.0
2018-Jun-09 03:00N 34°37' E 135°26'0 0.0
2018-Jun-09 02:30N 34°37' E 135°26'0 0.0
2018-Jun-09 02:00N 34°37' E 135°26'0 0.0
2018-Jun-09 01:30N 34°37' E 135°26'0 0.0
2018-Jun-09 00:54N 34°37' E 135°26'0 0.0
2018-Jun-09 00:30N 34°37' E 135°26'0 0.0
2018-Jun-09 00:00N 34°37' E 135°26'0 0.0
2018-Jun-08 23:30N 34°37' E 135°26'0 0.0
2018-Jun-08 23:00N 34°37' E 135°26'0 0.0
2018-Jun-08 22:30N 34°37' E 135°26'  

Dump ship's entire track history